Time;durP1;ratioP1;P1;durP2;ratioP2;P2;SDS_P1;SDS_P2;PMS_P1;PMS_P2;Temp;Humidity;BMP_temperature;BMP_pressure;BME280_temperature;BME280_humidity;BME280_pressure;Samples;Min_cycle;Max_cycle;Signal;HPM_P1;HPM_P2
2023/10/30 00:00:33;;;;;;;4.63;3.30;;;17.90;99.90;;;;;;4595466;19;20342;-76
2023/10/30 00:02:26;;;;;;;5.32;3.53;;;17.90;99.90;;;;;;4594557;19;20007;-76
2023/10/30 00:04:00;;;;;;;8.25;3.88;;;17.90;99.90;;;;;;4595272;19;20040;-76
2023/10/30 00:05:35;;;;;;;7.28;3.83;;;17.90;99.90;;;;;;4593609;19;20036;-76
2023/10/30 00:07:09;;;;;;;7.55;3.75;;;17.90;99.90;;;;;;4595213;19;20003;-76
2023/10/30 00:08:43;;;;;;;9.07;4.00;;;17.90;99.90;;;;;;4595173;19;19999;-76
2023/10/30 00:10:18;;;;;;;6.60;4.63;;;17.90;99.90;;;;;;4595173;19;20302;-76
2023/10/30 00:11:55;;;;;;;5.40;3.20;;;17.90;99.90;;;;;;4595421;19;20438;-76
2023/10/30 00:13:28;;;;;;;6.32;4.00;;;17.90;99.90;;;;;;4595109;19;20003;-76
2023/10/30 00:15:04;;;;;;;6.35;3.30;;;17.80;99.90;;;;;;4594251;19;20286;-76
2023/10/30 00:16:40;;;;;;;8.20;4.30;;;17.80;99.90;;;;;;4595286;19;19999;-76
2023/10/30 00:18:14;;;;;;;6.75;4.10;;;17.80;99.90;;;;;;4594970;19;19998;-76
2023/10/30 00:19:50;;;;;;;7.28;3.60;;;17.80;99.90;;;;;;4595028;19;19999;-76
2023/10/30 00:21:24;;;;;;;6.80;4.15;;;17.80;99.90;;;;;;4594921;19;20006;-76
2023/10/30 00:22:59;;;;;;;6.35;4.07;;;17.80;99.90;;;;;;4593858;19;20355;-76
2023/10/30 00:24:34;;;;;;;5.80;4.05;;;17.80;99.90;;;;;;4594591;19;20401;-76
2023/10/30 00:26:08;;;;;;;6.47;3.95;;;17.80;99.90;;;;;;4594831;19;20458;-76
2023/10/30 00:27:44;;;;;;;5.63;3.78;;;17.80;99.90;;;;;;4594805;19;20003;-76
2023/10/30 00:29:19;;;;;;;6.70;3.70;;;17.80;99.90;;;;;;4594823;19;20006;-76
2023/10/30 00:30:53;;;;;;;7.82;4.28;;;17.80;99.90;;;;;;4594736;19;19998;-76
2023/10/30 00:32:27;;;;;;;6.32;4.10;;;17.80;99.90;;;;;;4594575;19;20002;-76
2023/10/30 00:34:04;;;;;;;7.38;4.22;;;17.80;99.90;;;;;;4594975;19;20358;-76
2023/10/30 00:35:38;;;;;;;7.68;4.07;;;17.80;99.90;;;;;;4595020;19;20005;-76
2023/10/30 00:37:12;;;;;;;8.77;4.25;;;17.80;99.90;;;;;;4594592;19;20002;-76
2023/10/30 00:38:48;;;;;;;7.03;3.80;;;17.70;99.90;;;;;;4594543;19;20078;-76
2023/10/30 00:40:24;;;;;;;6.78;4.10;;;17.80;99.90;;;;;;4594845;19;20020;-76
2023/10/30 00:41:59;;;;;;;7.10;4.10;;;17.80;99.90;;;;;;4595137;19;19998;-76
2023/10/30 00:43:35;;;;;;;7.65;3.70;;;17.80;99.90;;;;;;4594571;19;20019;-76
2023/10/30 00:45:09;;;;;;;6.07;3.65;;;17.70;99.90;;;;;;4593271;19;20038;-76
2023/10/30 00:46:43;;;;;;;8.02;5.05;;;17.70;99.90;;;;;;4594700;19;20005;-76
2023/10/30 00:48:22;;;;;;;7.35;4.47;;;17.70;99.90;;;;;;4594668;19;20425;-76
2023/10/30 00:49:59;;;;;;;6.80;3.30;;;17.70;99.90;;;;;;4593089;19;20007;-76
2023/10/30 00:51:33;;;;;;;8.00;4.40;;;17.70;99.90;;;;;;4593931;19;20033;-76
2023/10/30 00:53:09;;;;;;;5.93;4.10;;;17.70;99.90;;;;;;4594312;19;20002;-76
2023/10/30 00:54:43;;;;;;;8.63;4.30;;;17.70;99.90;;;;;;4593779;19;20473;-76
2023/10/30 00:56:17;;;;;;;10.68;5.18;;;17.70;99.90;;;;;;4594242;19;20014;-76
2023/10/30 00:57:52;;;;;;;6.63;4.03;;;17.70;99.90;;;;;;4594472;19;20422;-76
2023/10/30 00:59:26;;;;;;;7.63;4.18;;;17.70;99.90;;;;;;4594159;19;20015;-76
2023/10/30 01:01:00;;;;;;;8.27;3.92;;;17.70;99.90;;;;;;4594245;19;20023;-76
2023/10/30 01:02:35;;;;;;;8.82;4.20;;;17.70;99.90;;;;;;4593458;19;20021;-76
2023/10/30 01:04:09;;;;;;;8.75;4.07;;;17.70;99.90;;;;;;4594077;19;19998;-76
2023/10/30 01:05:43;;;;;;;7.45;4.43;;;17.70;99.90;;;;;;4592560;19;20011;-76
2023/10/30 01:07:19;;;;;;;7.22;4.00;;;17.70;99.90;;;;;;4594465;19;20017;-76
2023/10/30 01:08:52;;;;;;;6.82;4.03;;;17.70;99.90;;;;;;4593948;19;20302;-76
2023/10/30 01:10:26;;;;;;;5.65;3.90;;;17.70;99.90;;;;;;4594153;19;20005;-76
2023/10/30 01:12:01;;;;;;;5.70;3.22;;;17.70;99.90;;;;;;4594159;19;19995;-76
2023/10/30 01:13:36;;;;;;;5.35;3.35;;;17.70;99.90;;;;;;4594136;19;20306;-76
2023/10/30 01:15:10;;;;;;;7.93;3.90;;;17.70;99.90;;;;;;4592812;19;20066;-76
2023/10/30 01:16:45;;;;;;;6.65;3.63;;;17.60;99.90;;;;;;4593850;19;20025;-76
2023/10/30 01:18:20;;;;;;;6.93;4.00;;;17.60;99.90;;;;;;4594020;19;20018;-76
2023/10/30 01:19:54;;;;;;;6.50;4.03;;;17.60;99.90;;;;;;4593935;19;19999;-76
2023/10/30 01:21:28;;;;;;;7.63;4.55;;;17.70;99.90;;;;;;4594095;19;20694;-76
2023/10/30 01:23:03;;;;;;;6.57;3.78;;;17.70;99.90;;;;;;4592699;19;19999;-76
2023/10/30 01:24:37;;;;;;;7.70;4.18;;;17.70;99.90;;;;;;4593306;19;20025;-76
2023/10/30 01:26:13;;;;;;;6.25;3.80;;;17.60;99.90;;;;;;4593627;19;20013;-76
2023/10/30 01:27:47;;;;;;;7.15;3.67;;;17.60;99.90;;;;;;4593814;19;20421;-76
2023/10/30 01:29:21;;;;;;;7.18;3.85;;;17.60;99.90;;;;;;4593756;19;19998;-76
2023/10/30 01:30:56;;;;;;;5.93;3.83;;;17.60;99.90;;;;;;4593504;19;19998;-76
2023/10/30 01:32:32;;;;;;;7.13;3.70;;;17.60;99.90;;;;;;4593711;19;20473;-76
2023/10/30 01:34:06;;;;;;;6.95;3.83;;;17.60;99.90;;;;;;4593225;19;20001;-76
2023/10/30 01:35:43;;;;;;;8.73;3.85;;;17.60;99.90;;;;;;4593702;19;20035;-76
2023/10/30 01:37:20;;;;;;;5.80;3.83;;;17.60;99.90;;;;;;4593343;19;20012;-76
2023/10/30 01:38:58;;;;;;;6.07;3.42;;;17.60;99.90;;;;;;4592298;19;20003;-76
2023/10/30 01:40:34;;;;;;;5.25;3.50;;;17.60;99.90;;;;;;4592970;19;20010;-76
2023/10/30 01:42:08;;;;;;;6.63;3.67;;;17.60;99.90;;;;;;4593269;19;20006;-76
2023/10/30 01:43:42;;;;;;;7.00;3.90;;;17.60;99.90;;;;;;4593184;19;19994;-76
2023/10/30 01:45:17;;;;;;;7.32;3.92;;;17.60;99.90;;;;;;4591715;19;20009;-76
2023/10/30 01:46:51;;;;;;;8.25;3.70;;;17.60;99.90;;;;;;4593127;19;19999;-76
2023/10/30 01:48:28;;;;;;;8.35;3.72;;;17.60;99.90;;;;;;4593377;19;20054;-76
2023/10/30 01:50:04;;;;;;;7.20;3.45;;;17.60;99.90;;;;;;4593166;19;20308;-76
2023/10/30 01:51:37;;;;;;;5.72;3.72;;;17.60;99.90;;;;;;4593273;19;20062;-76
2023/10/30 01:53:11;;;;;;;9.45;3.60;;;17.60;99.90;;;;;;4593252;19;20002;-76
2023/10/30 01:54:57;;;;;;;8.40;3.55;;;17.60;99.90;;;;;;4592366;19;20078;-76
2023/10/30 01:56:32;;;;;;;6.72;3.83;;;17.60;99.90;;;;;;4591764;19;19994;-76
2023/10/30 01:58:06;;;;;;;5.20;3.58;;;17.60;99.90;;;;;;4592572;19;19994;-76
2023/10/30 03:32:12;;;;;;;6.43;3.83;;;17.80;99.90;;;;;;3911180;19;20387;-83
2023/10/30 03:33:44;;;;;;;6.82;3.65;;;17.70;99.90;;;;;;4592713;19;20010;-76
2023/10/30 03:35:16;;;;;;;;;;;17.70;99.90;;;;;;4593742;19;20074;-76
2023/10/30 03:36:47;;;;;;;5.47;3.25;;;17.70;99.90;;;;;;4593416;19;19918;-77
2023/10/30 03:38:20;;;;;;;5.50;3.45;;;17.70;99.90;;;;;;4593407;19;20339;-75
2023/10/30 03:39:51;;;;;;;;;;;17.70;99.90;;;;;;4594279;19;20006;-77
2023/10/30 03:41:23;;;;;;;6.25;3.55;;;17.80;99.90;;;;;;4593520;19;19915;-77
2023/10/30 03:42:55;;;;;;;6.95;4.10;;;17.80;99.90;;;;;;4592311;19;20007;-78
2023/10/30 03:44:27;;;;;;;5.78;3.50;;;17.80;99.90;;;;;;4593204;19;20030;-77
2023/10/30 03:45:59;;;;;;;7.15;4.32;;;17.80;99.90;;;;;;4593260;19;20002;-77
2023/10/30 03:47:31;;;;;;;9.82;4.13;;;17.90;99.90;;;;;;4593167;19;20011;-76
2023/10/30 03:49:02;;;;;;;;;;;17.80;99.90;;;;;;4594194;19;20009;-76
2023/10/30 03:50:34;;;;;;;5.80;3.78;;;17.90;99.90;;;;;;4592267;19;19925;-76
2023/10/30 03:52:06;;;;;;;7.32;4.13;;;17.90;99.90;;;;;;4592844;19;20393;-77
2023/10/30 03:53:38;;;;;;;6.45;3.85;;;17.90;99.90;;;;;;4593352;19;20003;-77
2023/10/30 03:55:10;;;;;;;;;;;17.90;99.90;;;;;;4594009;19;20024;-77
2023/10/30 03:56:42;;;;;;;8.38;5.43;;;17.90;99.90;;;;;;4592007;19;19910;-76
2023/10/30 03:58:14;;;;;;;5.15;3.25;;;17.90;99.90;;;;;;4592728;19;20510;-76
2023/10/30 03:59:46;;;;;;;5.93;3.65;;;17.90;99.90;;;;;;4592944;19;20014;-77
2023/10/30 04:01:18;;;;;;;6.60;4.10;;;18.00;99.90;;;;;;4592664;19;20015;-76
2023/10/30 04:02:50;;;;;;;7.15;4.25;;;17.90;99.90;;;;;;4591993;19;20013;-78
2023/10/30 04:04:22;;;;;;;5.78;3.72;;;18.00;99.90;;;;;;4593162;19;20003;-77
2023/10/30 04:06:00;;;;;;;7.28;4.07;;;18.00;99.90;;;;;;4592882;19;20003;-77
2023/10/30 04:07:31;;;;;;;6.47;4.10;;;18.00;99.90;;;;;;4591858;19;20007;-78
2023/10/30 04:09:04;;;;;;;6.30;4.03;;;18.00;99.90;;;;;;4593141;19;20003;-77
2023/10/30 04:10:37;;;;;;;5.82;3.55;;;18.00;99.90;;;;;;4592735;19;20483;-77
2023/10/30 04:12:08;;;;;;;6.63;3.63;;;18.00;99.90;;;;;;4592681;19;20025;-77
2023/10/30 04:13:40;;;;;;;6.00;3.67;;;18.00;99.90;;;;;;4592565;19;20027;-77
2023/10/30 04:15:15;;;;;;;8.20;3.78;;;18.10;99.90;;;;;;4592656;19;20357;-77
2023/10/30 04:16:46;;;;;;;7.03;4.40;;;18.10;99.90;;;;;;4592638;19;20014;-77
2023/10/30 04:18:17;;;;;;;;;;;18.10;99.90;;;;;;4593251;19;20368;-77
2023/10/30 04:19:50;;;;;;;6.50;4.03;;;18.10;99.90;;;;;;4592928;19;19911;-77
2023/10/30 04:21:21;;;;;;;;;;;18.10;99.90;;;;;;4592364;19;20383;-78
2023/10/30 04:22:53;;;;;;;5.80;3.78;;;18.10;99.90;;;;;;4591370;19;19922;-78
2023/10/30 04:24:25;;;;;;;5.55;3.80;;;18.10;99.90;;;;;;4592389;19;20077;-77
2023/10/30 04:25:57;;;;;;;5.80;3.70;;;18.10;99.90;;;;;;4592654;19;20007;-78
2023/10/30 04:27:29;;;;;;;6.60;3.63;;;18.10;99.90;;;;;;4592530;19;20019;-78
2023/10/30 04:29:01;;;;;;;6.07;3.72;;;18.10;99.90;;;;;;4592673;19;20065;-78
2023/10/30 04:30:47;;;;;;;;;;;18.10;99.90;;;;;;4592033;19;20543;-77
2023/10/30 04:32:41;;;;;;;7.03;3.78;;;18.10;99.90;;;;;;4590707;19;19911;-77
2023/10/30 04:34:14;;;;;;;5.22;2.90;;;18.10;99.90;;;;;;4592429;19;20078;-77
2023/10/30 04:35:45;;;;;;;5.32;3.50;;;18.10;99.90;;;;;;4592207;19;20341;-78
2023/10/30 04:37:19;;;;;;;7.03;4.40;;;18.10;99.90;;;;;;4592536;19;20361;-77
2023/10/30 04:39:03;;;;;;;6.00;3.15;;;18.10;99.90;;;;;;4592145;19;20355;-78
2023/10/30 04:40:43;;;;;;;8.13;3.67;;;18.10;99.90;;;;;;4591721;19;20010;-77
2023/10/30 04:43:45;;;;;;;7.55;4.13;;;18.10;99.90;;;;;;4590063;19;19944;-78
2023/10/30 04:45:18;;;;;;;7.10;4.47;;;18.10;99.90;;;;;;4592457;19;20084;-75
2023/10/30 04:46:49;;;;;;;9.23;5.05;;;18.10;99.90;;;;;;4591301;19;20023;-79
2023/10/30 04:48:21;;;;;;;9.88;5.68;;;18.20;99.90;;;;;;4592112;19;20062;-77
2023/10/30 04:49:59;;;;;;;7.28;5.18;;;18.20;99.90;;;;;;4590852;19;20019;-78
2023/10/30 04:51:31;;;;;;;8.02;5.07;;;18.30;99.90;;;;;;4592293;19;20018;-76
2023/10/30 04:53:03;;;;;;;7.15;4.55;;;18.40;99.90;;;;;;4590737;19;20027;-76
2023/10/30 04:54:35;;;;;;;6.05;3.88;;;18.40;99.90;;;;;;4591505;19;20027;-76
2023/10/30 04:56:07;;;;;;;5.75;3.95;;;18.50;99.90;;;;;;4591773;19;20014;-77
2023/10/30 04:57:39;;;;;;;5.03;3.45;;;18.60;99.90;;;;;;4591106;19;20010;-77
2023/10/30 04:59:12;;;;;;;6.53;3.90;;;18.60;99.90;;;;;;4589846;19;20010;-74
2023/10/30 05:00:43;;;;;;;;;;;18.70;99.90;;;;;;4591861;19;20038;-74
2023/10/30 05:02:15;;;;;;;5.40;3.08;;;18.80;99.90;;;;;;4591653;19;19911;-75
2023/10/30 05:03:47;;;;;;;5.63;3.75;;;18.80;99.90;;;;;;4591702;19;20006;-75
2023/10/30 05:05:18;;;;;;;;;;;18.80;99.90;;;;;;4591989;19;20014;-74
2023/10/30 05:06:50;;;;;;;5.00;3.63;;;18.80;99.90;;;;;;4591404;19;20289;-75
2023/10/30 05:08:23;;;;;;;4.70;3.03;;;18.80;99.90;;;;;;4592281;19;20011;-77
2023/10/30 05:09:55;;;;;;;6.72;3.58;;;18.80;99.90;;;;;;4591557;19;20014;-77
2023/10/30 05:11:26;;;;;;;;;;;18.80;99.90;;;;;;4592693;19;20029;-76
2023/10/30 05:12:58;;;;;;;;;;;18.80;99.90;;;;;;4592787;19;20301;-80
2023/10/30 05:14:30;;;;;;;5.50;3.25;;;18.80;99.90;;;;;;4590590;19;20348;-80
2023/10/30 05:16:02;;;;;;;4.47;3.10;;;18.80;99.90;;;;;;4590471;19;20376;-78
2023/10/30 05:17:38;;;;;;;5.38;2.63;;;18.80;99.90;;;;;;4591223;19;20014;-77
2023/10/30 05:19:09;;;;;;;5.32;3.20;;;18.80;99.90;;;;;;4589510;19;20027;-82
2023/10/30 05:20:41;;;;;;;6.28;3.70;;;18.90;99.90;;;;;;4590559;19;20006;-61
2023/10/30 05:22:14;;;;;;;6.65;3.83;;;18.90;99.90;;;;;;4590831;19;20007;-61
2023/10/30 05:23:45;;;;;;;6.50;3.78;;;18.80;99.90;;;;;;4591302;19;20010;-62
2023/10/30 05:25:18;;;;;;;8.18;3.80;;;18.80;99.90;;;;;;4591238;19;20006;-62
2023/10/30 05:26:52;;;;;;;6.10;3.83;;;18.80;99.90;;;;;;4591241;19;20021;-62
2023/10/30 05:28:25;;;;;;;7.32;4.30;;;18.80;99.90;;;;;;4590065;19;20015;-74
2023/10/30 05:29:59;;;;;;;6.13;4.18;;;18.80;99.90;;;;;;4592074;19;20504;-74
2023/10/30 05:31:36;;;;;;;6.55;5.03;;;18.40;99.90;;;;;;4592356;19;20466;-74
2023/10/30 05:33:10;;;;;;;5.95;4.95;;;18.00;99.90;;;;;;4593175;19;19999;-74
2023/10/30 05:34:46;;;;;;;6.28;4.85;;;17.60;99.90;;;;;;4593220;19;20006;-74
2023/10/30 05:36:21;;;;;;;5.88;4.55;;;17.30;99.90;;;;;;4593518;19;20002;-74
2023/10/30 05:37:56;;;;;;;7.30;5.10;;;17.20;99.90;;;;;;4593694;19;20058;-74
2023/10/30 05:39:30;;;;;;;6.20;4.82;;;17.10;99.90;;;;;;4593332;19;19998;-74
2023/10/30 05:41:06;;;;;;;8.23;5.10;;;17.00;99.90;;;;;;4593732;19;20009;-74
2023/10/30 05:42:41;;;;;;;6.22;5.07;;;16.90;99.90;;;;;;4593117;19;19994;-74
2023/10/30 05:44:15;;;;;;;6.15;4.82;;;16.80;99.90;;;;;;4593279;19;20065;-74
2023/10/30 05:45:50;;;;;;;6.65;5.18;;;16.80;99.90;;;;;;4593556;19;20066;-74
2023/10/30 05:47:24;;;;;;;5.70;4.47;;;16.80;99.90;;;;;;4593259;19;20005;-74
2023/10/30 05:48:59;;;;;;;5.47;4.60;;;16.70;99.90;;;;;;4593400;19;20002;-74
2023/10/30 05:50:35;;;;;;;7.25;4.78;;;16.60;99.90;;;;;;4592205;19;20067;-74
2023/10/30 05:52:09;;;;;;;7.95;5.35;;;16.60;99.90;;;;;;4592996;19;20015;-74
2023/10/30 05:53:43;;;;;;;6.13;5.13;;;16.60;99.90;;;;;;4593080;19;20003;-74
2023/10/30 05:55:20;;;;;;;6.40;5.10;;;16.50;99.90;;;;;;4592220;19;20007;-74
2023/10/30 05:56:53;;;;;;;6.88;5.38;;;16.50;99.90;;;;;;4593051;19;20011;-74
2023/10/30 05:58:27;;;;;;;6.72;5.40;;;16.50;99.90;;;;;;4592962;19;19994;-74
2023/10/30 06:00:03;;;;;;;8.52;6.25;;;16.50;99.90;;;;;;4593078;19;20002;-74
2023/10/30 06:01:37;;;;;;;7.45;5.70;;;16.50;99.90;;;;;;4593400;19;20275;-74
2023/10/30 06:03:13;;;;;;;6.95;5.22;;;16.50;99.90;;;;;;4592019;19;19999;-74
2023/10/30 06:04:49;;;;;;;8.18;6.97;;;16.50;99.90;;;;;;4592407;19;20042;-74
2023/10/30 06:06:23;;;;;;;6.82;5.43;;;16.50;99.90;;;;;;4593060;19;20017;-74
2023/10/30 06:07:59;;;;;;;8.48;6.10;;;16.40;99.90;;;;;;4593067;19;19994;-74
2023/10/30 06:09:34;;;;;;;7.45;5.35;;;16.30;99.90;;;;;;4592836;19;20018;-74
2023/10/30 06:11:10;;;;;;;6.63;5.40;;;16.30;99.90;;;;;;4592692;19;20031;-74
2023/10/30 06:12:47;;;;;;;5.88;4.85;;;16.30;99.90;;;;;;4593043;19;20455;-74
2023/10/30 06:14:24;;;;;;;6.80;5.22;;;16.20;99.90;;;;;;4591454;19;20155;-74
2023/10/30 06:15:59;;;;;;;6.05;4.95;;;16.20;99.90;;;;;;4591321;19;19999;-74
2023/10/30 06:17:39;;;;;;;7.40;5.43;;;16.10;99.90;;;;;;4592261;19;20066;-73
2023/10/30 06:19:15;;;;;;;5.83;4.70;;;16.10;99.90;;;;;;4592984;19;20425;-74
2023/10/30 06:20:49;;;;;;;5.65;4.65;;;16.00;99.90;;;;;;4592531;19;20423;-74
2023/10/30 06:22:23;;;;;;;7.88;4.90;;;16.00;99.90;;;;;;4591020;19;20101;-74
2023/10/30 06:23:59;;;;;;;5.82;4.70;;;15.90;99.90;;;;;;4591170;19;19998;-74
2023/10/30 06:25:34;;;;;;;6.13;4.72;;;15.90;99.90;;;;;;4591412;19;20006;-74
2023/10/30 06:27:07;;;;;;;5.80;4.75;;;15.90;99.90;;;;;;4590938;19;20037;-74
2023/10/30 06:28:44;;;;;;;5.88;4.75;;;15.90;99.90;;;;;;4591290;19;20014;-74
2023/10/30 06:30:18;;;;;;;7.50;5.35;;;15.80;99.90;;;;;;4592296;19;20002;-74
2023/10/30 06:31:53;;;;;;;6.95;5.28;;;15.80;99.90;;;;;;4591338;19;20011;-74
2023/10/30 06:33:29;;;;;;;6.80;5.68;;;15.80;99.90;;;;;;4591318;19;20463;-74
2023/10/30 06:35:03;;;;;;;7.18;5.05;;;15.80;99.90;;;;;;4591288;19;20009;-73
2023/10/30 06:36:38;;;;;;;7.95;5.50;;;15.70;99.90;;;;;;4592565;19;20372;-74
2023/10/30 06:38:13;;;;;;;7.55;5.97;;;15.70;99.90;;;;;;4592587;19;20425;-73
2023/10/30 06:39:47;;;;;;;6.80;5.75;;;15.70;99.90;;;;;;4592481;19;20003;-73
2023/10/30 06:41:21;;;;;;;6.35;5.00;;;15.70;99.90;;;;;;4592417;19;20002;-74
2023/10/30 06:42:58;;;;;;;8.05;6.32;;;15.90;99.90;;;;;;4591608;19;20002;-74
2023/10/30 06:44:32;;;;;;;8.73;7.07;;;16.10;99.90;;;;;;4592083;19;20073;-74
2023/10/30 06:46:06;;;;;;;9.35;6.68;;;16.20;99.90;;;;;;4592349;19;20003;-74
2023/10/30 06:47:41;;;;;;;10.73;6.53;;;16.40;99.90;;;;;;4590637;19;20019;-73
2023/10/30 06:49:16;;;;;;;8.38;7.07;;;16.50;99.90;;;;;;4591616;19;19995;-74
2023/10/30 06:50:50;;;;;;;8.75;6.00;;;16.60;99.90;;;;;;4592015;19;20007;-74
2023/10/30 06:52:25;;;;;;;8.40;6.60;;;16.70;99.90;;;;;;4592063;19;20066;-73
2023/10/30 06:53:59;;;;;;;9.60;6.57;;;16.80;99.90;;;;;;4592249;19;19995;-73
2023/10/30 06:55:35;;;;;;;8.23;6.07;;;16.90;99.90;;;;;;4589758;19;20010;-74
2023/10/30 06:57:12;;;;;;;8.18;6.57;;;17.00;99.90;;;;;;4591673;19;20007;-74
2023/10/30 06:58:45;;;;;;;8.38;5.93;;;17.10;99.90;;;;;;4591853;19;20011;-74
2023/10/30 07:00:23;;;;;;;7.28;5.80;;;17.20;99.90;;;;;;4591844;19;20005;-73
2023/10/30 07:02:00;;;;;;;8.30;5.38;;;17.20;99.90;;;;;;4591888;19;20006;-74
2023/10/30 07:03:35;;;;;;;7.93;4.97;;;17.30;99.90;;;;;;4589699;19;20007;-74
2023/10/30 07:05:09;;;;;;;7.80;5.35;;;17.30;99.90;;;;;;4590570;19;20029;-73
2023/10/30 07:06:44;;;;;;;6.70;4.80;;;17.40;99.90;;;;;;4590568;19;19998;-74
2023/10/30 07:08:19;;;;;;;6.35;4.63;;;17.40;99.90;;;;;;4590354;19;19998;-74
2023/10/30 07:09:53;;;;;;;6.25;4.45;;;17.40;99.90;;;;;;4591354;19;20032;-73
2023/10/30 07:11:29;;;;;;;6.15;4.72;;;17.40;99.90;;;;;;4591715;19;20002;-74
2023/10/30 07:13:04;;;;;;;7.55;5.35;;;17.50;99.90;;;;;;4591910;19;19998;-73
2023/10/30 07:14:39;;;;;;;5.75;4.60;;;17.50;99.90;;;;;;4591153;19;20006;-74
2023/10/30 07:16:15;;;;;;;7.20;4.63;;;17.50;99.90;;;;;;4591900;19;20028;-74
2023/10/30 07:17:49;;;;;;;6.32;4.65;;;17.50;99.90;;;;;;4591795;19;19999;-74
2023/10/30 07:19:24;;;;;;;6.03;4.25;;;17.60;99.90;;;;;;4591771;19;20003;-73
2023/10/30 07:20:59;;;;;;;6.95;5.05;;;17.60;99.90;;;;;;4591781;19;20027;-74
2023/10/30 07:22:34;;;;;;;6.72;4.38;;;17.60;99.90;;;;;;4591132;19;20440;-73
2023/10/30 07:24:08;;;;;;;6.20;4.38;;;17.60;99.90;;;;;;4591437;19;20007;-73
2023/10/30 07:25:43;;;;;;;6.63;4.68;;;17.60;99.90;;;;;;4590161;19;20107;-74
2023/10/30 07:27:18;;;;;;;5.80;4.25;;;17.60;99.90;;;;;;4590078;19;20077;-74
2023/10/30 07:28:52;;;;;;;5.10;3.65;;;17.70;99.90;;;;;;4587286;19;20031;-73
2023/10/30 07:30:28;;;;;;;6.95;4.07;;;17.70;99.90;;;;;;4589863;19;20011;-74
2023/10/30 07:32:02;;;;;;;6.43;4.18;;;17.70;99.90;;;;;;4590343;19;20019;-74
2023/10/30 07:33:37;;;;;;;8.63;5.03;;;17.70;99.90;;;;;;4590056;19;20002;-74
2023/10/30 07:35:13;;;;;;;6.03;4.28;;;17.70;99.90;;;;;;4589277;19;20007;-74
2023/10/30 07:36:48;;;;;;;7.10;5.03;;;17.70;99.90;;;;;;4589968;19;19999;-74
2023/10/30 07:38:22;;;;;;;7.93;5.30;;;17.70;99.90;;;;;;4589875;19;20002;-74
2023/10/30 07:39:59;;;;;;;6.40;4.82;;;17.70;99.90;;;;;;4590180;19;20010;-74
2023/10/30 07:41:33;;;;;;;7.82;4.88;;;17.70;99.90;;;;;;4589826;19;20480;-74
2023/10/30 07:43:07;;;;;;;7.05;6.07;;;17.70;99.90;;;;;;4592142;19;20445;-73
2023/10/30 07:44:43;;;;;;;7.55;5.88;;;17.70;99.90;;;;;;4592597;19;20287;-73
2023/10/30 07:46:17;;;;;;;7.80;5.90;;;17.70;99.90;;;;;;4592966;19;20002;-74
2023/10/30 07:47:52;;;;;;;5.70;4.95;;;17.70;99.90;;;;;;4593661;19;20440;-74
2023/10/30 07:49:27;;;;;;;8.13;7.32;;;17.70;99.90;;;;;;4592755;19;20124;-73
2023/10/30 07:51:04;;;;;;;9.43;8.52;;;17.70;99.90;;;;;;4593761;19;20294;-73
2023/10/30 07:52:38;;;;;;;11.90;10.80;;;17.70;99.90;;;;;;4593879;19;20320;-74
2023/10/30 07:54:16;;;;;;;8.52;7.72;;;17.70;99.90;;;;;;4593995;19;20315;-73
2023/10/30 07:55:50;;;;;;;7.03;6.22;;;17.70;99.90;;;;;;4593799;19;20066;-74
2023/10/30 07:57:24;;;;;;;5.88;4.60;;;17.80;99.90;;;;;;4593789;19;20006;-74
2023/10/30 07:59:00;;;;;;;9.05;5.60;;;17.70;99.90;;;;;;4594293;19;20007;-75
2023/10/30 08:00:35;;;;;;;7.38;4.75;;;17.70;99.90;;;;;;4594098;19;20002;-74
2023/10/30 08:02:09;;;;;;;6.10;4.43;;;17.80;99.90;;;;;;4593782;19;19999;-74
2023/10/30 08:03:45;;;;;;;9.20;5.30;;;17.80;99.90;;;;;;4591153;19;20082;-74
2023/10/30 08:05:20;;;;;;;5.22;3.90;;;17.80;99.90;;;;;;4592284;19;20422;-73
2023/10/30 08:06:54;;;;;;;6.28;4.05;;;17.80;99.90;;;;;;4593978;19;19999;-73
2023/10/30 08:08:29;;;;;;;7.95;4.38;;;17.80;99.90;;;;;;4593744;19;20007;-74
2023/10/30 08:10:05;;;;;;;5.90;4.32;;;17.80;99.90;;;;;;4593854;19;20010;-74
2023/10/30 08:11:40;;;;;;;6.35;4.50;;;17.80;99.90;;;;;;4593589;19;20023;-73
2023/10/30 08:13:15;;;;;;;5.93;3.67;;;17.80;99.90;;;;;;4593718;19;20309;-73
2023/10/30 08:14:49;;;;;;;6.07;3.90;;;17.80;99.90;;;;;;4592889;19;20015;-74
2023/10/30 08:16:24;;;;;;;5.47;4.18;;;17.80;99.90;;;;;;4593560;19;20058;-73
2023/10/30 08:17:59;;;;;;;6.38;4.13;;;17.90;99.90;;;;;;4593555;19;20010;-74
2023/10/30 08:19:33;;;;;;;6.82;4.28;;;17.90;99.90;;;;;;4593488;19;20002;-74
2023/10/30 08:21:13;;;;;;;7.22;4.05;;;17.90;99.90;;;;;;4593666;19;19999;-74
2023/10/30 08:22:49;;;;;;;7.45;4.10;;;17.90;99.90;;;;;;4593028;19;20014;-74
2023/10/30 08:24:22;;;;;;;6.47;3.95;;;18.00;99.90;;;;;;4593147;19;20002;-74
2023/10/30 08:25:58;;;;;;;5.75;4.20;;;18.00;99.90;;;;;;4593394;19;20531;-74
2023/10/30 08:27:35;;;;;;;5.63;4.07;;;18.00;99.90;;;;;;4425164;19;4813008;-75
2023/10/30 08:29:09;;;;;;;6.25;3.45;;;18.00;99.90;;;;;;4595118;19;20006;-74
2023/10/30 08:30:43;;;;;;;4.72;3.47;;;18.00;99.90;;;;;;4593453;19;20096;-74
2023/10/30 08:32:18;;;;;;;5.80;3.67;;;18.00;99.90;;;;;;4594330;19;20002;-74
2023/10/30 08:33:54;;;;;;;6.10;3.30;;;18.10;99.90;;;;;;4594745;19;20002;-73
2023/10/30 08:35:28;;;;;;;6.38;3.35;;;18.10;99.90;;;;;;4593370;19;20006;-74
2023/10/30 08:37:03;;;;;;;6.30;3.25;;;18.10;99.90;;;;;;4593436;19;20002;-73
2023/10/30 08:38:40;;;;;;;4.43;2.97;;;18.10;99.90;;;;;;4594587;19;20062;-74
2023/10/30 08:40:15;;;;;;;8.32;3.88;;;18.10;99.90;;;;;;4594637;19;20019;-73
2023/10/30 08:41:50;;;;;;;5.80;3.42;;;18.10;99.90;;;;;;4594614;19;20014;-73
2023/10/30 08:43:25;;;;;;;4.75;2.90;;;18.10;99.90;;;;;;4593398;19;20086;-74
2023/10/30 08:45:00;;;;;;;6.68;3.30;;;18.10;99.90;;;;;;4593947;19;20421;-74
2023/10/30 08:46:35;;;;;;;5.35;2.95;;;18.10;99.90;;;;;;4594496;19;20029;-74
2023/10/30 08:48:11;;;;;;;5.03;3.10;;;18.10;99.90;;;;;;4594380;19;20006;-74
2023/10/30 08:49:46;;;;;;;5.70;3.30;;;18.10;99.90;;;;;;4593110;19;20024;-74
2023/10/30 08:51:22;;;;;;;6.75;3.40;;;18.10;99.90;;;;;;4593078;19;20090;-74
2023/10/30 08:52:56;;;;;;;5.35;3.33;;;18.10;99.90;;;;;;4594273;19;19999;-74
2023/10/30 08:54:30;;;;;;;6.20;3.20;;;18.10;99.90;;;;;;4591244;19;20010;-74
2023/10/30 08:56:05;;;;;;;3.90;2.20;;;18.10;99.90;;;;;;4594230;19;20028;-74
2023/10/30 08:57:40;;;;;;;4.10;2.60;;;18.10;99.90;;;;;;4594178;19;20002;-74
2023/10/30 08:59:15;;;;;;;7.43;2.85;;;18.10;99.90;;;;;;4592840;19;20429;-74
2023/10/30 09:00:51;;;;;;;4.78;2.42;;;18.10;99.90;;;;;;4593981;19;20066;-74
2023/10/30 09:02:24;;;;;;;6.38;2.50;;;18.10;99.90;;;;;;4592677;19;20414;-74
2023/10/30 09:03:58;;;;;;;4.40;2.42;;;18.10;99.90;;;;;;4594002;19;19998;-74
2023/10/30 09:05:34;;;;;;;5.32;2.55;;;18.10;99.90;;;;;;4592801;19;20026;-74
2023/10/30 09:07:08;;;;;;;4.82;2.72;;;18.10;99.90;;;;;;4594047;19;20025;-74
2023/10/30 09:08:42;;;;;;;4.10;2.10;;;18.10;99.90;;;;;;4593950;19;20334;-74
2023/10/30 09:10:20;;;;;;;3.95;2.10;;;18.10;99.90;;;;;;4592750;19;20004;-74
2023/10/30 09:11:55;;;;;;;3.88;2.38;;;18.10;99.90;;;;;;4593857;19;20013;-74
2023/10/30 09:13:29;;;;;;;3.70;2.10;;;18.10;99.90;;;;;;4593876;19;20433;-74
2023/10/30 09:15:05;;;;;;;6.70;2.20;;;18.10;99.90;;;;;;4593330;19;20333;-74
2023/10/30 09:16:40;;;;;;;4.88;2.47;;;18.10;99.90;;;;;;4594056;19;20003;-73
2023/10/30 09:18:13;;;;;;;4.13;2.45;;;18.20;99.90;;;;;;4593991;19;20009;-74
2023/10/30 09:19:49;;;;;;;3.80;2.10;;;18.20;99.90;;;;;;4593773;19;20002;-74
2023/10/30 09:21:23;;;;;;;3.15;2.30;;;18.20;99.90;;;;;;4593879;19;20005;-73
2023/10/30 09:22:57;;;;;;;4.63;1.90;;;18.20;99.90;;;;;;4593193;19;20425;-73
2023/10/30 09:24:33;;;;;;;5.30;2.15;;;18.30;99.90;;;;;;4592316;19;20047;-74
2023/10/30 09:26:10;;;;;;;4.55;2.33;;;18.30;99.90;;;;;;4592406;19;20003;-74
2023/10/30 09:27:44;;;;;;;3.38;1.85;;;18.30;99.90;;;;;;4592730;19;20287;-76
2023/10/30 09:29:19;;;;;;;3.72;2.15;;;18.40;99.90;;;;;;4593340;19;20003;-74
2023/10/30 09:30:53;;;;;;;4.95;2.28;;;18.40;99.90;;;;;;4593805;19;20002;-74
2023/10/30 09:32:27;;;;;;;4.15;2.40;;;18.50;99.90;;;;;;4593429;19;20357;-73
2023/10/30 09:34:03;;;;;;;4.80;2.20;;;18.50;99.90;;;;;;4593412;19;20322;-74
2023/10/30 09:35:38;;;;;;;3.30;1.92;;;18.50;99.90;;;;;;4591742;19;20021;-73
2023/10/30 09:37:12;;;;;;;3.10;1.85;;;18.50;99.90;;;;;;4593374;19;20320;-74
2023/10/30 09:38:48;;;;;;;5.38;2.25;;;18.50;99.90;;;;;;4593851;19;20428;-74
2023/10/30 09:40:28;;;;;;;3.40;2.13;;;18.40;99.90;;;;;;4593357;19;20021;-74
2023/10/30 09:42:04;;;;;;;5.40;2.35;;;18.40;99.90;;;;;;4592079;19;20006;-73
2023/10/30 09:43:40;;;;;;;4.20;1.95;;;18.40;99.90;;;;;;4591057;19;20010;-74
2023/10/30 09:45:15;;;;;;;3.13;1.75;;;18.40;99.90;;;;;;4592351;19;20003;-74
2023/10/30 09:46:50;;;;;;;4.00;1.75;;;18.40;99.90;;;;;;4591872;19;20425;-74
2023/10/30 09:48:25;;;;;;;3.90;1.88;;;18.40;99.90;;;;;;4591887;19;20013;-74